sensor_id;sensor_type;location;lat;lon;timestamp;temperature;humidity
13686;DHT22;6915;48.296;8.874;2023-04-03T00:00:57;1.70;99.90
13686;DHT22;6915;48.296;8.874;2023-04-03T00:03:28;1.70;99.90
13686;DHT22;6915;48.296;8.874;2023-04-03T00:05:56;1.70;99.90
13686;DHT22;6915;48.296;8.874;2023-04-03T00:08:25;1.70;99.90
13686;DHT22;6915;48.296;8.874;2023-04-03T00:10:53;1.60;99.90
13686;DHT22;6915;48.296;8.874;2023-04-03T00:13:22;1.70;99.90
13686;DHT22;6915;48.296;8.874;2023-04-03T00:15:51;1.70;99.90
13686;DHT22;6915;48.296;8.874;2023-04-03T00:18:20;1.80;99.90
13686;DHT22;6915;48.296;8.874;2023-04-03T00:20:50;1.70;99.90
13686;DHT22;6915;48.296;8.874;2023-04-03T00:23:19;1.70;99.90
13686;DHT22;6915;48.296;8.874;2023-04-03T00:25:48;1.70;99.90
13686;DHT22;6915;48.296;8.874;2023-04-03T00:28:16;1.70;99.90
13686;DHT22;6915;48.296;8.874;2023-04-03T00:30:45;1.70;99.90
13686;DHT22;6915;48.296;8.874;2023-04-03T00:33:14;1.70;99.90
13686;DHT22;6915;48.296;8.874;2023-04-03T00:35:43;1.70;99.90
13686;DHT22;6915;48.296;8.874;2023-04-03T00:38:13;1.70;99.90
13686;DHT22;6915;48.296;8.874;2023-04-03T00:40:44;1.70;99.90
13686;DHT22;6915;48.296;8.874;2023-04-03T00:43:15;1.90;99.90
13686;DHT22;6915;48.296;8.874;2023-04-03T00:45:45;1.70;99.90
13686;DHT22;6915;48.296;8.874;2023-04-03T00:48:18;1.70;99.90
13686;DHT22;6915;48.296;8.874;2023-04-03T00:50:49;1.70;99.90
13686;DHT22;6915;48.296;8.874;2023-04-03T00:53:25;1.70;99.90
13686;DHT22;6915;48.296;8.874;2023-04-03T00:55:56;1.70;99.90
13686;DHT22;6915;48.296;8.874;2023-04-03T00:58:31;1.70;99.90
13686;DHT22;6915;48.296;8.874;2023-04-03T01:01:05;1.70;99.90
13686;DHT22;6915;48.296;8.874;2023-04-03T01:03:35;1.70;99.90
13686;DHT22;6915;48.296;8.874;2023-04-03T01:06:04;1.60;99.90
13686;DHT22;6915;48.296;8.874;2023-04-03T01:08:34;1.70;99.90
13686;DHT22;6915;48.296;8.874;2023-04-03T01:11:04;1.70;99.90
13686;DHT22;6915;48.296;8.874;2023-04-03T01:13:34;1.70;99.90
13686;DHT22;6915;48.296;8.874;2023-04-03T01:16:04;1.60;99.90
13686;DHT22;6915;48.296;8.874;2023-04-03T01:18:34;1.80;99.90
13686;DHT22;6915;48.296;8.874;2023-04-03T01:21:23;1.70;99.90
13686;DHT22;6915;48.296;8.874;2023-04-03T01:24:12;1.70;99.90
13686;DHT22;6915;48.296;8.874;2023-04-03T01:26:44;1.80;99.90
13686;DHT22;6915;48.296;8.874;2023-04-03T01:29:12;1.70;99.90
13686;DHT22;6915;48.296;8.874;2023-04-03T01:31:49;1.70;99.90
13686;DHT22;6915;48.296;8.874;2023-04-03T01:34:18;1.70;99.90
13686;DHT22;6915;48.296;8.874;2023-04-03T01:36:48;1.60;99.90
13686;DHT22;6915;48.296;8.874;2023-04-03T01:39:18;1.70;99.90
13686;DHT22;6915;48.296;8.874;2023-04-03T01:41:47;1.90;99.90
13686;DHT22;6915;48.296;8.874;2023-04-03T01:44:16;1.60;99.90
13686;DHT22;6915;48.296;8.874;2023-04-03T01:46:45;1.70;99.90
13686;DHT22;6915;48.296;8.874;2023-04-03T01:49:15;1.60;99.90
13686;DHT22;6915;48.296;8.874;2023-04-03T01:51:43;1.70;99.90
13686;DHT22;6915;48.296;8.874;2023-04-03T01:54:12;1.60;99.90
13686;DHT22;6915;48.296;8.874;2023-04-03T01:56:41;1.60;99.90
13686;DHT22;6915;48.296;8.874;2023-04-03T01:59:11;1.60;99.90
13686;DHT22;6915;48.296;8.874;2023-04-03T02:01:39;1.60;99.90
13686;DHT22;6915;48.296;8.874;2023-04-03T02:04:08;1.60;99.90
13686;DHT22;6915;48.296;8.874;2023-04-03T02:06:39;1.70;99.90
13686;DHT22;6915;48.296;8.874;2023-04-03T02:09:08;1.60;99.90
13686;DHT22;6915;48.296;8.874;2023-04-03T02:11:37;1.50;99.90
13686;DHT22;6915;48.296;8.874;2023-04-03T02:14:05;1.50;99.90
13686;DHT22;6915;48.296;8.874;2023-04-03T02:16:34;1.30;99.90
13686;DHT22;6915;48.296;8.874;2023-04-03T02:19:03;1.40;99.90
13686;DHT22;6915;48.296;8.874;2023-04-03T02:21:32;1.40;99.90
13686;DHT22;6915;48.296;8.874;2023-04-03T02:24:02;1.40;99.90
13686;DHT22;6915;48.296;8.874;2023-04-03T02:26:31;1.40;99.90
13686;DHT22;6915;48.296;8.874;2023-04-03T02:28:59;1.40;99.90
13686;DHT22;6915;48.296;8.874;2023-04-03T02:31:28;1.40;99.90
13686;DHT22;6915;48.296;8.874;2023-04-03T02:33:56;1.50;99.90
13686;DHT22;6915;48.296;8.874;2023-04-03T02:36:25;1.50;99.90
13686;DHT22;6915;48.296;8.874;2023-04-03T02:38:53;1.60;99.90
13686;DHT22;6915;48.296;8.874;2023-04-03T02:41:24;1.50;99.90
13686;DHT22;6915;48.296;8.874;2023-04-03T02:43:59;1.30;99.90
13686;DHT22;6915;48.296;8.874;2023-04-03T02:46:27;1.50;99.90
13686;DHT22;6915;48.296;8.874;2023-04-03T02:48:56;1.50;99.90
13686;DHT22;6915;48.296;8.874;2023-04-03T02:51:25;1.50;99.90
13686;DHT22;6915;48.296;8.874;2023-04-03T02:53:53;1.50;99.90
13686;DHT22;6915;48.296;8.874;2023-04-03T02:56:23;1.50;99.90
13686;DHT22;6915;48.296;8.874;2023-04-03T02:58:54;1.40;99.90
13686;DHT22;6915;48.296;8.874;2023-04-03T03:01:22;1.40;99.90
13686;DHT22;6915;48.296;8.874;2023-04-03T03:03:51;1.30;99.90
13686;DHT22;6915;48.296;8.874;2023-04-03T03:06:20;1.40;99.90
13686;DHT22;6915;48.296;8.874;2023-04-03T03:08:48;1.50;99.90
13686;DHT22;6915;48.296;8.874;2023-04-03T03:11:17;1.40;99.90
13686;DHT22;6915;48.296;8.874;2023-04-03T03:13:48;1.40;99.90
13686;DHT22;6915;48.296;8.874;2023-04-03T03:16:17;1.40;99.90
13686;DHT22;6915;48.296;8.874;2023-04-03T03:18:45;1.40;99.90
13686;DHT22;6915;48.296;8.874;2023-04-03T03:21:14;1.40;99.90
13686;DHT22;6915;48.296;8.874;2023-04-03T03:23:43;1.40;99.90
13686;DHT22;6915;48.296;8.874;2023-04-03T03:26:12;1.40;99.90
13686;DHT22;6915;48.296;8.874;2023-04-03T03:28:42;1.30;99.90
13686;DHT22;6915;48.296;8.874;2023-04-03T03:31:12;1.40;99.90
13686;DHT22;6915;48.296;8.874;2023-04-03T03:33:42;1.30;99.90
13686;DHT22;6915;48.296;8.874;2023-04-03T03:36:11;1.40;99.90
13686;DHT22;6915;48.296;8.874;2023-04-03T03:38:40;1.50;99.90
13686;DHT22;6915;48.296;8.874;2023-04-03T03:41:08;1.30;99.90
13686;DHT22;6915;48.296;8.874;2023-04-03T03:43:37;1.20;99.90
13686;DHT22;6915;48.296;8.874;2023-04-03T03:46:06;1.40;99.90
13686;DHT22;6915;48.296;8.874;2023-04-03T03:48:36;1.30;99.90
13686;DHT22;6915;48.296;8.874;2023-04-03T03:51:05;1.30;99.90
13686;DHT22;6915;48.296;8.874;2023-04-03T03:53:34;1.30;99.90
13686;DHT22;6915;48.296;8.874;2023-04-03T03:56:03;1.20;99.90
13686;DHT22;6915;48.296;8.874;2023-04-03T03:58:32;1.30;99.90
13686;DHT22;6915;48.296;8.874;2023-04-03T04:01:04;1.20;99.90
13686;DHT22;6915;48.296;8.874;2023-04-03T04:03:33;1.20;99.90
13686;DHT22;6915;48.296;8.874;2023-04-03T04:06:02;1.20;99.90
13686;DHT22;6915;48.296;8.874;2023-04-03T04:08:30;1.20;99.90
13686;DHT22;6915;48.296;8.874;2023-04-03T04:10:59;1.20;99.90
13686;DHT22;6915;48.296;8.874;2023-04-03T04:13:27;1.20;99.90
13686;DHT22;6915;48.296;8.874;2023-04-03T04:15:56;1.20;99.90
13686;DHT22;6915;48.296;8.874;2023-04-03T04:18:24;1.20;99.90
13686;DHT22;6915;48.296;8.874;2023-04-03T04:20:55;1.20;99.90
13686;DHT22;6915;48.296;8.874;2023-04-03T04:28:28;1.20;99.90
13686;DHT22;6915;48.296;8.874;2023-04-03T04:30:58;1.20;99.90
13686;DHT22;6915;48.296;8.874;2023-04-03T04:33:27;1.20;99.90
13686;DHT22;6915;48.296;8.874;2023-04-03T04:35:57;1.10;99.90
13686;DHT22;6915;48.296;8.874;2023-04-03T04:38:27;1.10;99.90
13686;DHT22;6915;48.296;8.874;2023-04-03T04:40:55;1.10;99.90
13686;DHT22;6915;48.296;8.874;2023-04-03T04:43:24;1.10;99.90
13686;DHT22;6915;48.296;8.874;2023-04-03T04:46:00;1.10;99.90
13686;DHT22;6915;48.296;8.874;2023-04-03T04:48:29;1.10;99.90
13686;DHT22;6915;48.296;8.874;2023-04-03T04:50:59;1.10;99.90
13686;DHT22;6915;48.296;8.874;2023-04-03T04:53:27;1.10;99.90
13686;DHT22;6915;48.296;8.874;2023-04-03T04:55:56;1.10;99.90
13686;DHT22;6915;48.296;8.874;2023-04-03T04:58:25;1.10;99.90
13686;DHT22;6915;48.296;8.874;2023-04-03T05:00:58;1.10;99.90
13686;DHT22;6915;48.296;8.874;2023-04-03T05:03:27;1.10;99.90
13686;DHT22;6915;48.296;8.874;2023-04-03T05:05:56;1.10;99.90
13686;DHT22;6915;48.296;8.874;2023-04-03T05:08:26;1.10;99.90
13686;DHT22;6915;48.296;8.874;2023-04-03T05:10:55;1.10;99.90
13686;DHT22;6915;48.296;8.874;2023-04-03T05:13:24;1.20;99.90
13686;DHT22;6915;48.296;8.874;2023-04-03T05:15:52;1.20;99.90
13686;DHT22;6915;48.296;8.874;2023-04-03T05:18:21;1.20;99.90
13686;DHT22;6915;48.296;8.874;2023-04-03T05:20:50;1.20;99.90
13686;DHT22;6915;48.296;8.874;2023-04-03T05:23:18;1.20;99.90
13686;DHT22;6915;48.296;8.874;2023-04-03T05:28:20;1.20;99.90
13686;DHT22;6915;48.296;8.874;2023-04-03T05:30:53;1.20;99.90
13686;DHT22;6915;48.296;8.874;2023-04-03T05:33:22;1.20;99.90
13686;DHT22;6915;48.296;8.874;2023-04-03T05:35:51;1.30;99.90
13686;DHT22;6915;48.296;8.874;2023-04-03T05:38:20;1.30;99.90
13686;DHT22;6915;48.296;8.874;2023-04-03T05:40:49;1.30;99.90
13686;DHT22;6915;48.296;8.874;2023-04-03T05:43:17;1.30;99.90
13686;DHT22;6915;48.296;8.874;2023-04-03T05:45:46;1.40;99.90
13686;DHT22;6915;48.296;8.874;2023-04-03T05:48:15;1.40;99.90
13686;DHT22;6915;48.296;8.874;2023-04-03T05:50:44;1.40;99.90
13686;DHT22;6915;48.296;8.874;2023-04-03T05:53:19;1.40;99.90
13686;DHT22;6915;48.296;8.874;2023-04-03T05:55:49;1.40;99.90
13686;DHT22;6915;48.296;8.874;2023-04-03T05:58:17;1.30;99.90
13686;DHT22;6915;48.296;8.874;2023-04-03T06:00:46;1.50;99.90
13686;DHT22;6915;48.296;8.874;2023-04-03T06:03:16;1.50;99.90
13686;DHT22;6915;48.296;8.874;2023-04-03T06:05:45;1.50;99.90
13686;DHT22;6915;48.296;8.874;2023-04-03T06:08:14;1.50;99.90
13686;DHT22;6915;48.296;8.874;2023-04-03T06:10:43;1.50;99.90
13686;DHT22;6915;48.296;8.874;2023-04-03T06:13:12;1.50;99.90
13686;DHT22;6915;48.296;8.874;2023-04-03T06:15:42;1.50;99.90
13686;DHT22;6915;48.296;8.874;2023-04-03T06:18:12;1.50;99.90
13686;DHT22;6915;48.296;8.874;2023-04-03T06:20:41;1.50;99.90
13686;DHT22;6915;48.296;8.874;2023-04-03T06:23:11;1.50;99.90
13686;DHT22;6915;48.296;8.874;2023-04-03T06:25:39;1.50;99.90
13686;DHT22;6915;48.296;8.874;2023-04-03T06:28:10;1.60;99.90
13686;DHT22;6915;48.296;8.874;2023-04-03T06:30:38;1.50;99.90
13686;DHT22;6915;48.296;8.874;2023-04-03T06:33:09;1.50;99.90
13686;DHT22;6915;48.296;8.874;2023-04-03T06:35:37;1.50;99.90
13686;DHT22;6915;48.296;8.874;2023-04-03T06:38:06;1.50;99.90
13686;DHT22;6915;48.296;8.874;2023-04-03T06:40:36;1.50;99.90
13686;DHT22;6915;48.296;8.874;2023-04-03T06:43:05;1.60;99.90
13686;DHT22;6915;48.296;8.874;2023-04-03T06:45:34;1.60;99.90
13686;DHT22;6915;48.296;8.874;2023-04-03T06:48:03;1.70;99.90
13686;DHT22;6915;48.296;8.874;2023-04-03T06:50:34;1.60;99.90
13686;DHT22;6915;48.296;8.874;2023-04-03T06:53:02;1.70;99.90
13686;DHT22;6915;48.296;8.874;2023-04-03T06:55:32;1.70;99.90
13686;DHT22;6915;48.296;8.874;2023-04-03T06:58:01;1.90;99.90
13686;DHT22;6915;48.296;8.874;2023-04-03T07:00:30;1.80;99.90
13686;DHT22;6915;48.296;8.874;2023-04-03T07:02:59;1.80;99.90
13686;DHT22;6915;48.296;8.874;2023-04-03T07:05:28;1.90;99.90
13686;DHT22;6915;48.296;8.874;2023-04-03T07:07:58;2.00;99.90
13686;DHT22;6915;48.296;8.874;2023-04-03T07:10:27;2.00;99.90
13686;DHT22;6915;48.296;8.874;2023-04-03T07:12:55;2.10;99.90
13686;DHT22;6915;48.296;8.874;2023-04-03T07:15:24;2.10;99.90
13686;DHT22;6915;48.296;8.874;2023-04-03T07:17:54;2.20;99.90
13686;DHT22;6915;48.296;8.874;2023-04-03T07:20:24;2.30;99.90
13686;DHT22;6915;48.296;8.874;2023-04-03T07:22:53;2.30;99.90
13686;DHT22;6915;48.296;8.874;2023-04-03T07:25:23;2.40;99.90
13686;DHT22;6915;48.296;8.874;2023-04-03T07:27:52;2.50;99.90
13686;DHT22;6915;48.296;8.874;2023-04-03T07:35:27;2.60;99.90
13686;DHT22;6915;48.296;8.874;2023-04-03T07:37:55;2.70;99.90
13686;DHT22;6915;48.296;8.874;2023-04-03T07:40:27;2.60;99.90
13686;DHT22;6915;48.296;8.874;2023-04-03T07:42:55;2.70;99.90
13686;DHT22;6915;48.296;8.874;2023-04-03T07:45:25;2.80;99.90
13686;DHT22;6915;48.296;8.874;2023-04-03T07:47:53;2.70;99.90
13686;DHT22;6915;48.296;8.874;2023-04-03T07:50:23;2.90;99.90
13686;DHT22;6915;48.296;8.874;2023-04-03T07:52:52;2.90;99.90
13686;DHT22;6915;48.296;8.874;2023-04-03T07:55:22;2.80;99.90
13686;DHT22;6915;48.296;8.874;2023-04-03T07:57:51;2.80;99.90
13686;DHT22;6915;48.296;8.874;2023-04-03T08:00:20;2.70;99.90
13686;DHT22;6915;48.296;8.874;2023-04-03T08:02:49;2.60;99.90
13686;DHT22;6915;48.296;8.874;2023-04-03T08:05:19;2.60;99.90
13686;DHT22;6915;48.296;8.874;2023-04-03T08:07:50;2.60;99.90
13686;DHT22;6915;48.296;8.874;2023-04-03T08:10:18;2.60;99.90
13686;DHT22;6915;48.296;8.874;2023-04-03T08:12:48;2.60;99.90
13686;DHT22;6915;48.296;8.874;2023-04-03T08:15:19;2.70;99.90
13686;DHT22;6915;48.296;8.874;2023-04-03T08:17:50;2.70;99.90
13686;DHT22;6915;48.296;8.874;2023-04-03T08:20:20;2.80;99.90
13686;DHT22;6915;48.296;8.874;2023-04-03T08:22:51;2.80;99.90
13686;DHT22;6915;48.296;8.874;2023-04-03T08:25:20;2.80;99.90
13686;DHT22;6915;48.296;8.874;2023-04-03T08:27:49;2.80;99.90
13686;DHT22;6915;48.296;8.874;2023-04-03T08:30:19;2.90;99.90
13686;DHT22;6915;48.296;8.874;2023-04-03T08:32:48;2.80;99.90
13686;DHT22;6915;48.296;8.874;2023-04-03T08:35:17;2.90;99.90
13686;DHT22;6915;48.296;8.874;2023-04-03T08:37:48;2.80;99.90
13686;DHT22;6915;48.296;8.874;2023-04-03T08:40:18;2.70;99.90
13686;DHT22;6915;48.296;8.874;2023-04-03T08:42:53;2.70;99.90
13686;DHT22;6915;48.296;8.874;2023-04-03T08:45:27;2.70;99.90
13686;DHT22;6915;48.296;8.874;2023-04-03T08:48:06;3.00;99.90
13686;DHT22;6915;48.296;8.874;2023-04-03T08:50:38;2.90;99.90
13686;DHT22;6915;48.296;8.874;2023-04-03T08:53:13;2.80;99.90
13686;DHT22;6915;48.296;8.874;2023-04-03T08:55:45;2.90;99.90
13686;DHT22;6915;48.296;8.874;2023-04-03T08:58:18;3.10;99.90
13686;DHT22;6915;48.296;8.874;2023-04-03T09:00:52;3.10;99.90
13686;DHT22;6915;48.296;8.874;2023-04-03T09:03:24;3.30;99.90
13686;DHT22;6915;48.296;8.874;2023-04-03T09:05:55;3.10;99.90
13686;DHT22;6915;48.296;8.874;2023-04-03T09:08:28;3.20;99.90
13686;DHT22;6915;48.296;8.874;2023-04-03T09:11:12;3.10;99.90
13686;DHT22;6915;48.296;8.874;2023-04-03T09:13:52;3.00;99.90
13686;DHT22;6915;48.296;8.874;2023-04-03T09:16:32;2.90;99.90
13686;DHT22;6915;48.296;8.874;2023-04-03T09:19:13;3.10;99.90
13686;DHT22;6915;48.296;8.874;2023-04-03T09:21:44;3.10;99.90
13686;DHT22;6915;48.296;8.874;2023-04-03T09:24:15;3.00;99.90
13686;DHT22;6915;48.296;8.874;2023-04-03T09:26:48;3.30;99.90
13686;DHT22;6915;48.296;8.874;2023-04-03T09:29:21;3.10;99.90
13686;DHT22;6915;48.296;8.874;2023-04-03T09:31:56;3.10;99.90
13686;DHT22;6915;48.296;8.874;2023-04-03T09:34:28;3.20;99.90
13686;DHT22;6915;48.296;8.874;2023-04-03T09:44:40;3.20;99.90
13686;DHT22;6915;48.296;8.874;2023-04-03T09:47:22;3.20;99.90
13686;DHT22;6915;48.296;8.874;2023-04-03T09:50:15;3.20;99.90
13686;DHT22;6915;48.296;8.874;2023-04-03T09:52:48;3.10;99.90
13686;DHT22;6915;48.296;8.874;2023-04-03T09:55:21;3.10;99.90
13686;DHT22;6915;48.296;8.874;2023-04-03T09:57:54;3.20;99.90
13686;DHT22;6915;48.296;8.874;2023-04-03T10:00:28;3.40;99.90
13686;DHT22;6915;48.296;8.874;2023-04-03T10:06:26;3.40;99.90
13686;DHT22;6915;48.296;8.874;2023-04-03T10:09:01;3.40;99.90
13686;DHT22;6915;48.296;8.874;2023-04-03T10:14:58;3.50;99.90
13686;DHT22;6915;48.296;8.874;2023-04-03T10:17:39;3.60;99.90
13686;DHT22;6915;48.296;8.874;2023-04-03T10:20:26;3.70;99.90
13686;DHT22;6915;48.296;8.874;2023-04-03T10:23:02;3.80;99.90
13686;DHT22;6915;48.296;8.874;2023-04-03T10:25:43;3.90;99.90
13686;DHT22;6915;48.296;8.874;2023-04-03T10:28:20;3.90;99.90
13686;DHT22;6915;48.296;8.874;2023-04-03T10:30:58;3.90;99.90
13686;DHT22;6915;48.296;8.874;2023-04-03T10:33:45;4.00;99.90
13686;DHT22;6915;48.296;8.874;2023-04-03T10:36:22;4.10;99.90
13686;DHT22;6915;48.296;8.874;2023-04-03T10:39:00;4.30;99.90
13686;DHT22;6915;48.296;8.874;2023-04-03T10:41:35;4.10;99.90
13686;DHT22;6915;48.296;8.874;2023-04-03T10:44:17;4.20;99.90
13686;DHT22;6915;48.296;8.874;2023-04-03T10:46:52;4.20;99.90
13686;DHT22;6915;48.296;8.874;2023-04-03T10:49:35;4.10;99.90
13686;DHT22;6915;48.296;8.874;2023-04-03T10:52:13;4.30;99.90
13686;DHT22;6915;48.296;8.874;2023-04-03T10:54:49;4.00;99.90
13686;DHT22;6915;48.296;8.874;2023-04-03T10:57:25;4.20;99.90
13686;DHT22;6915;48.296;8.874;2023-04-03T10:59:57;4.10;99.90
13686;DHT22;6915;48.296;8.874;2023-04-03T11:02:32;4.10;99.90
13686;DHT22;6915;48.296;8.874;2023-04-03T11:05:06;3.90;99.90
13686;DHT22;6915;48.296;8.874;2023-04-03T11:07:40;3.90;99.90
13686;DHT22;6915;48.296;8.874;2023-04-03T11:10:17;3.90;99.90
13686;DHT22;6915;48.296;8.874;2023-04-03T11:12:56;3.90;99.90
13686;DHT22;6915;48.296;8.874;2023-04-03T11:15:29;4.30;99.90
13686;DHT22;6915;48.296;8.874;2023-04-03T11:18:06;4.30;99.90
13686;DHT22;6915;48.296;8.874;2023-04-03T11:20:39;4.10;99.90
13686;DHT22;6915;48.296;8.874;2023-04-03T11:23:16;4.00;99.90
13686;DHT22;6915;48.296;8.874;2023-04-03T11:25:51;3.80;99.90
13686;DHT22;6915;48.296;8.874;2023-04-03T11:28:21;4.00;99.90
13686;DHT22;6915;48.296;8.874;2023-04-03T11:30:53;3.80;99.90
13686;DHT22;6915;48.296;8.874;2023-04-03T11:33:39;3.90;99.90
13686;DHT22;6915;48.296;8.874;2023-04-03T11:36:12;4.10;99.90
13686;DHT22;6915;48.296;8.874;2023-04-03T11:38:51;4.20;99.90
13686;DHT22;6915;48.296;8.874;2023-04-03T11:41:27;4.10;99.90
13686;DHT22;6915;48.296;8.874;2023-04-03T11:44:00;4.20;99.90
13686;DHT22;6915;48.296;8.874;2023-04-03T11:46:51;4.10;99.90
13686;DHT22;6915;48.296;8.874;2023-04-03T11:49:59;4.00;99.90
13686;DHT22;6915;48.296;8.874;2023-04-03T11:52:58;3.90;99.90
13686;DHT22;6915;48.296;8.874;2023-04-03T11:55:52;3.90;99.90
13686;DHT22;6915;48.296;8.874;2023-04-03T11:58:24;3.90;99.90
13686;DHT22;6915;48.296;8.874;2023-04-03T12:01:04;3.90;99.90
13686;DHT22;6915;48.296;8.874;2023-04-03T12:03:56;4.00;99.90
13686;DHT22;6915;48.296;8.874;2023-04-03T12:07:11;4.10;99.90
13686;DHT22;6915;48.296;8.874;2023-04-03T12:10:16;4.10;99.90
13686;DHT22;6915;48.296;8.874;2023-04-03T12:12:56;4.20;99.90
13686;DHT22;6915;48.296;8.874;2023-04-03T12:15:49;4.30;99.90
13686;DHT22;6915;48.296;8.874;2023-04-03T12:18:56;4.40;99.90
13686;DHT22;6915;48.296;8.874;2023-04-03T12:22:04;4.30;99.90
13686;DHT22;6915;48.296;8.874;2023-04-03T12:24:30;4.10;99.90
13686;DHT22;6915;48.296;8.874;2023-04-03T12:27:07;4.00;99.90
13686;DHT22;6915;48.296;8.874;2023-04-03T12:29:43;4.00;99.90
13686;DHT22;6915;48.296;8.874;2023-04-03T12:32:22;3.90;99.90
13686;DHT22;6915;48.296;8.874;2023-04-03T12:35:01;3.90;99.90
13686;DHT22;6915;48.296;8.874;2023-04-03T12:37:43;3.90;99.90
13686;DHT22;6915;48.296;8.874;2023-04-03T12:40:27;3.90;99.90
13686;DHT22;6915;48.296;8.874;2023-04-03T12:43:28;4.00;99.90
13686;DHT22;6915;48.296;8.874;2023-04-03T12:46:04;4.10;99.90
13686;DHT22;6915;48.296;8.874;2023-04-03T12:48:47;4.30;99.90
13686;DHT22;6915;48.296;8.874;2023-04-03T12:51:17;4.30;99.90
13686;DHT22;6915;48.296;8.874;2023-04-03T12:53:47;4.40;99.90
13686;DHT22;6915;48.296;8.874;2023-04-03T12:56:25;4.40;99.90
13686;DHT22;6915;48.296;8.874;2023-04-03T12:58:55;4.40;99.90
13686;DHT22;6915;48.296;8.874;2023-04-03T13:01:40;4.30;99.90
13686;DHT22;6915;48.296;8.874;2023-04-03T13:04:12;4.40;99.90
13686;DHT22;6915;48.296;8.874;2023-04-03T13:06:44;4.30;99.90
13686;DHT22;6915;48.296;8.874;2023-04-03T13:09:22;4.50;99.90
13686;DHT22;6915;48.296;8.874;2023-04-03T13:11:53;4.60;99.90
13686;DHT22;6915;48.296;8.874;2023-04-03T13:14:25;4.60;99.90
13686;DHT22;6915;48.296;8.874;2023-04-03T13:16:57;4.50;99.90
13686;DHT22;6915;48.296;8.874;2023-04-03T13:19:28;4.40;99.90
13686;DHT22;6915;48.296;8.874;2023-04-03T13:22:01;4.40;99.90
13686;DHT22;6915;48.296;8.874;2023-04-03T13:24:33;4.50;99.90
13686;DHT22;6915;48.296;8.874;2023-04-03T13:27:03;4.40;99.90
13686;DHT22;6915;48.296;8.874;2023-04-03T13:29:36;4.20;99.90
13686;DHT22;6915;48.296;8.874;2023-04-03T13:32:21;4.20;99.90
13686;DHT22;6915;48.296;8.874;2023-04-03T13:34:55;4.10;99.90
13686;DHT22;6915;48.296;8.874;2023-04-03T13:37:26;4.20;99.90
13686;DHT22;6915;48.296;8.874;2023-04-03T13:40:00;4.30;99.90
13686;DHT22;6915;48.296;8.874;2023-04-03T13:42:31;4.30;99.90
13686;DHT22;6915;48.296;8.874;2023-04-03T13:45:19;4.40;99.90
13686;DHT22;6915;48.296;8.874;2023-04-03T13:47:51;4.50;99.90
13686;DHT22;6915;48.296;8.874;2023-04-03T13:50:23;4.50;99.90
13686;DHT22;6915;48.296;8.874;2023-04-03T13:52:54;4.30;99.90
13686;DHT22;6915;48.296;8.874;2023-04-03T13:55:26;4.40;99.90
13686;DHT22;6915;48.296;8.874;2023-04-03T13:57:58;4.20;99.90
13686;DHT22;6915;48.296;8.874;2023-04-03T14:00:34;4.00;99.90
13686;DHT22;6915;48.296;8.874;2023-04-03T14:03:11;4.00;99.90
13686;DHT22;6915;48.296;8.874;2023-04-03T14:05:41;4.00;99.90
13686;DHT22;6915;48.296;8.874;2023-04-03T14:08:12;4.00;99.90
13686;DHT22;6915;48.296;8.874;2023-04-03T14:10:40;4.00;99.90
13686;DHT22;6915;48.296;8.874;2023-04-03T14:13:11;4.00;99.90
13686;DHT22;6915;48.296;8.874;2023-04-03T14:15:40;4.00;99.90
13686;DHT22;6915;48.296;8.874;2023-04-03T14:18:13;4.10;99.90
13686;DHT22;6915;48.296;8.874;2023-04-03T14:20:43;4.10;99.90
13686;DHT22;6915;48.296;8.874;2023-04-03T14:23:13;4.10;99.90
13686;DHT22;6915;48.296;8.874;2023-04-03T14:25:42;4.10;99.90
13686;DHT22;6915;48.296;8.874;2023-04-03T14:28:15;4.20;99.90
13686;DHT22;6915;48.296;8.874;2023-04-03T14:30:46;4.20;99.90
13686;DHT22;6915;48.296;8.874;2023-04-03T14:33:18;4.20;99.90
13686;DHT22;6915;48.296;8.874;2023-04-03T14:35:48;4.20;99.90
13686;DHT22;6915;48.296;8.874;2023-04-03T14:38:23;4.00;99.90
13686;DHT22;6915;48.296;8.874;2023-04-03T14:40:55;4.10;99.90
13686;DHT22;6915;48.296;8.874;2023-04-03T14:43:24;4.10;99.90
13686;DHT22;6915;48.296;8.874;2023-04-03T14:45:54;4.10;99.90
13686;DHT22;6915;48.296;8.874;2023-04-03T14:48:24;4.10;99.90
13686;DHT22;6915;48.296;8.874;2023-04-03T14:50:54;4.00;99.90
13686;DHT22;6915;48.296;8.874;2023-04-03T14:53:23;4.00;99.90
13686;DHT22;6915;48.296;8.874;2023-04-03T14:55:55;4.00;99.90
13686;DHT22;6915;48.296;8.874;2023-04-03T14:58:24;4.00;99.90
13686;DHT22;6915;48.296;8.874;2023-04-03T15:00:52;4.10;99.90
13686;DHT22;6915;48.296;8.874;2023-04-03T15:03:23;4.10;99.90
13686;DHT22;6915;48.296;8.874;2023-04-03T15:05:51;4.20;99.90
13686;DHT22;6915;48.296;8.874;2023-04-03T15:08:23;4.40;99.90
13686;DHT22;6915;48.296;8.874;2023-04-03T15:10:53;4.50;99.90
13686;DHT22;6915;48.296;8.874;2023-04-03T15:13:23;4.70;99.90
13686;DHT22;6915;48.296;8.874;2023-04-03T15:15:52;4.70;99.90
13686;DHT22;6915;48.296;8.874;2023-04-03T15:18:24;4.70;99.90
13686;DHT22;6915;48.296;8.874;2023-04-03T15:20:55;4.50;99.90
13686;DHT22;6915;48.296;8.874;2023-04-03T15:23:24;4.20;99.90
13686;DHT22;6915;48.296;8.874;2023-04-03T15:25:54;4.10;99.90
13686;DHT22;6915;48.296;8.874;2023-04-03T15:28:26;4.20;99.90
13686;DHT22;6915;48.296;8.874;2023-04-03T15:30:56;4.20;99.90
13686;DHT22;6915;48.296;8.874;2023-04-03T15:33:25;4.20;99.90
13686;DHT22;6915;48.296;8.874;2023-04-03T15:35:56;4.20;99.90
13686;DHT22;6915;48.296;8.874;2023-04-03T15:38:25;4.10;99.90
13686;DHT22;6915;48.296;8.874;2023-04-03T15:40:56;4.10;99.90
13686;DHT22;6915;48.296;8.874;2023-04-03T15:43:25;4.10;99.90
13686;DHT22;6915;48.296;8.874;2023-04-03T15:45:54;4.00;99.90
13686;DHT22;6915;48.296;8.874;2023-04-03T15:49:46;4.00;99.90
13686;DHT22;6915;48.296;8.874;2023-04-03T15:51:19;4.00;99.90
13686;DHT22;6915;48.296;8.874;2023-04-03T15:53:48;4.00;99.90
13686;DHT22;6915;48.296;8.874;2023-04-03T15:56:19;4.00;99.90
13686;DHT22;6915;48.296;8.874;2023-04-03T15:58:48;4.00;99.90
13686;DHT22;6915;48.296;8.874;2023-04-03T16:01:16;4.10;99.90
13686;DHT22;6915;48.296;8.874;2023-04-03T16:03:46;4.10;99.90
13686;DHT22;6915;48.296;8.874;2023-04-03T16:06:17;4.00;99.90
13686;DHT22;6915;48.296;8.874;2023-04-03T16:09:01;4.10;99.90
13686;DHT22;6915;48.296;8.874;2023-04-03T16:11:33;4.00;99.90
13686;DHT22;6915;48.296;8.874;2023-04-03T16:14:03;4.00;99.90
13686;DHT22;6915;48.296;8.874;2023-04-03T16:16:39;3.90;99.90
13686;DHT22;6915;48.296;8.874;2023-04-03T16:19:08;4.10;99.90
13686;DHT22;6915;48.296;8.874;2023-04-03T16:44:56;4.10;99.90
13686;DHT22;6915;48.296;8.874;2023-04-03T16:47:26;4.30;99.90
13686;DHT22;6915;48.296;8.874;2023-04-03T16:49:54;4.40;99.90
13686;DHT22;6915;48.296;8.874;2023-04-03T16:52:23;4.40;99.90
13686;DHT22;6915;48.296;8.874;2023-04-03T16:57:38;4.00;99.90
13686;DHT22;6915;48.296;8.874;2023-04-03T17:00:10;4.00;99.90
13686;DHT22;6915;48.296;8.874;2023-04-03T17:02:41;4.00;99.90
13686;DHT22;6915;48.296;8.874;2023-04-03T17:05:10;3.90;99.90
13686;DHT22;6915;48.296;8.874;2023-04-03T17:07:39;3.80;99.90
13686;DHT22;6915;48.296;8.874;2023-04-03T17:10:09;3.80;99.90
13686;DHT22;6915;48.296;8.874;2023-04-03T17:12:39;3.70;99.90
13686;DHT22;6915;48.296;8.874;2023-04-03T17:15:10;3.80;99.90
13686;DHT22;6915;48.296;8.874;2023-04-03T17:17:39;3.70;99.90
13686;DHT22;6915;48.296;8.874;2023-04-03T17:20:09;3.90;99.90
13686;DHT22;6915;48.296;8.874;2023-04-03T17:22:38;3.70;99.90
13686;DHT22;6915;48.296;8.874;2023-04-03T17:25:07;3.60;99.90
13686;DHT22;6915;48.296;8.874;2023-04-03T17:27:37;3.70;99.90